Time;durP1;ratioP1;P1;durP2;ratioP2;P2;SDS_P1;SDS_P2;PMS_P1;PMS_P2;Temp;Humidity;BMP_temperature;BMP_pressure;BME280_temperature;BME280_humidity;BME280_pressure;Samples;Min_cycle;Max_cycle;Signal;HPM_P1;HPM_P2
2022/05/06 00:00:11;;;;;;;42.72;24.63;;;14.00;64.40;;;;;;5113316;28;20024;-72
2022/05/06 00:02:37;;;;;;;45.45;24.42;;;13.90;64.20;;;;;;5113352;28;20088;-72
2022/05/06 00:05:03;;;;;;;49.72;24.35;;;14.00;63.90;;;;;;5113406;28;20024;-72
2022/05/06 00:07:28;;;;;;;45.75;26.33;;;14.00;63.70;;;;;;5113254;28;20028;-72
2022/05/06 00:09:54;;;;;;;48.47;27.23;;;14.00;64.10;;;;;;5113298;28;20476;-72
2022/05/06 00:12:20;;;;;;;49.47;26.30;;;13.90;64.20;;;;;;5113361;28;20031;-72
2022/05/06 00:14:46;;;;;;;46.67;26.30;;;13.80;64.40;;;;;;5113219;28;20028;-72
2022/05/06 00:17:12;;;;;;;50.13;26.73;;;13.60;65.10;;;;;;5113146;28;20028;-72
2022/05/06 00:19:38;;;;;;;49.35;25.77;;;13.50;65.40;;;;;;5113147;28;20016;-72
2022/05/06 00:22:04;;;;;;;50.63;27.38;;;13.50;65.50;;;;;;5113076;28;20099;-72
2022/05/06 00:24:29;;;;;;;48.05;26.20;;;13.60;65.50;;;;;;5113075;28;20058;-72
2022/05/06 00:26:56;;;;;;;50.85;27.10;;;13.70;65.50;;;;;;5113207;28;20024;-72
2022/05/06 00:29:22;;;;;;;47.40;26.60;;;13.70;65.40;;;;;;5112880;28;20080;-72
2022/05/06 00:31:48;;;;;;;47.17;26.98;;;13.70;65.70;;;;;;5095269;28;20032;-72
2022/05/06 00:34:13;;;;;;;51.13;27.05;;;13.60;65.70;;;;;;5113036;28;20050;-72
2022/05/06 00:36:39;;;;;;;45.45;25.83;;;13.60;65.90;;;;;;5112901;28;20044;-72
2022/05/06 00:39:05;;;;;;;46.00;26.50;;;13.60;65.60;;;;;;5116766;28;20029;-72
2022/05/06 00:41:34;;;;;;;45.10;26.05;;;13.60;65.50;;;;;;5116793;28;20020;-72
2022/05/06 00:44:01;;;;;;;47.00;26.65;;;13.60;65.40;;;;;;5116735;28;20036;-72
2022/05/06 00:46:27;;;;;;;50.13;26.58;;;13.50;65.90;;;;;;5116756;28;20046;-72
2022/05/06 00:48:55;;;;;;;45.00;25.40;;;13.30;66.60;;;;;;5116568;28;20028;-72
2022/05/06 00:51:20;;;;;;;50.30;27.30;;;13.10;67.00;;;;;;5116699;28;20035;-72
2022/05/06 00:53:47;;;;;;;49.58;26.83;;;13.00;67.10;;;;;;5116584;28;20028;-72
2022/05/06 00:56:16;;;;;;;48.88;26.67;;;13.00;68.10;;;;;;5116562;28;20120;-72
2022/05/06 00:58:44;;;;;;;51.92;27.63;;;12.90;67.50;;;;;;5116443;28;20030;-72
2022/05/06 01:01:10;;;;;;;47.17;25.15;;;12.80;68.20;;;;;;5116422;28;20028;-72
2022/05/06 01:03:35;;;;;;;49.22;26.23;;;12.90;67.60;;;;;;5116388;28;20029;-72
2022/05/06 01:06:06;;;;;;;50.80;26.45;;;13.00;67.30;;;;;;5116480;28;20020;-72
2022/05/06 01:08:33;;;;;;;49.55;26.20;;;13.10;66.70;;;;;;5116321;28;20050;-72
2022/05/06 01:10:59;;;;;;;52.25;25.90;;;13.10;66.60;;;;;;5098186;28;20119;-72
2022/05/06 01:13:24;;;;;;;42.70;25.33;;;13.10;67.20;;;;;;5116218;28;20040;-72
2022/05/06 01:15:54;;;;;;;50.65;26.70;;;13.10;67.80;;;;;;5116149;28;20028;-72
2022/05/06 01:18:20;;;;;;;48.60;26.73;;;13.10;68.30;;;;;;5116283;28;20035;-72
2022/05/06 01:20:49;;;;;;;47.00;25.33;;;13.10;68.10;;;;;;5116067;28;20036;-72
2022/05/06 01:23:15;;;;;;;47.90;25.35;;;13.20;67.80;;;;;;5116021;28;20024;-72
2022/05/06 01:25:43;;;;;;;45.10;24.95;;;13.20;67.80;;;;;;5115971;28;20027;-72
2022/05/06 01:28:12;;;;;;;49.13;25.67;;;13.20;67.50;;;;;;5115840;28;20028;-72
2022/05/06 01:30:39;;;;;;;46.60;24.38;;;13.20;67.00;;;;;;5115772;28;20017;-72
2022/05/06 01:33:07;;;;;;;42.95;24.88;;;13.10;66.90;;;;;;5115837;28;20028;-72
2022/05/06 01:35:42;;;;;;;46.55;24.40;;;12.90;67.20;;;;;;5115756;28;20016;-72
2022/05/06 01:38:10;;;;;;;46.13;25.80;;;12.90;67.50;;;;;;5115558;28;20103;-72
2022/05/06 01:40:42;;;;;;;46.17;25.13;;;12.70;67.90;;;;;;5115703;28;20062;-72
2022/05/06 01:43:13;;;;;;;46.70;25.58;;;12.80;67.90;;;;;;5115778;28;20024;-72
2022/05/06 01:45:40;;;;;;;45.20;24.48;;;12.80;68.30;;;;;;5115751;28;20024;-72
2022/05/06 01:48:08;;;;;;;44.78;24.25;;;12.90;67.90;;;;;;5115416;28;20024;-72
2022/05/06 01:50:37;;;;;;;48.90;24.35;;;12.90;67.60;;;;;;5114475;28;20020;-72
2022/05/06 01:53:03;;;;;;;42.95;24.48;;;13.00;67.30;;;;;;5115382;28;20023;-72
2022/05/06 01:55:29;;;;;;;47.53;25.27;;;12.90;67.40;;;;;;5115556;28;20079;-71
2022/05/06 01:57:55;;;;;;;42.45;24.02;;;12.90;67.20;;;;;;5115366;28;20050;-71
2022/05/06 02:00:20;;;;;;;41.00;22.50;;;12.80;67.50;;;;;;5115308;28;20043;-71
2022/05/06 02:02:46;;;;;;;46.67;24.42;;;12.80;67.30;;;;;;5115244;28;20028;-72
2022/05/06 02:05:19;;;;;;;49.65;24.85;;;12.80;67.20;;;;;;5115246;28;20043;-72
2022/05/06 02:07:48;;;;;;;47.55;25.35;;;12.70;67.50;;;;;;5115221;28;20024;-72
2022/05/06 02:10:15;;;;;;;47.20;23.45;;;12.60;67.90;;;;;;5115007;28;20024;-72
2022/05/06 02:12:41;;;;;;;43.92;23.95;;;12.60;68.40;;;;;;5115053;28;20028;-72
2022/05/06 02:15:08;;;;;;;46.17;23.85;;;12.60;68.50;;;;;;5115017;28;20483;-72
2022/05/06 02:17:34;;;;;;;44.15;24.38;;;12.60;68.80;;;;;;5096980;28;20024;-72
2022/05/06 02:19:59;;;;;;;48.47;24.63;;;12.60;68.70;;;;;;5096990;28;20038;-72
2022/05/06 02:22:27;;;;;;;46.13;24.48;;;12.60;68.50;;;;;;5114866;28;20036;-72
2022/05/06 02:24:55;;;;;;;47.58;24.10;;;12.60;68.70;;;;;;5114821;28;20445;-71
2022/05/06 02:27:21;;;;;;;48.20;24.85;;;12.60;68.50;;;;;;5114875;28;20111;-71
2022/05/06 02:35:16;;;;;;;42.88;22.48;;;12.60;68.60;;;;;;5114691;28;20091;-71
2022/05/06 02:37:42;;;;;;;45.53;24.73;;;12.60;68.10;;;;;;5114561;28;20070;-71
2022/05/06 02:40:09;;;;;;;43.65;23.58;;;12.40;68.40;;;;;;5114497;28;20058;-71
2022/05/06 02:42:36;;;;;;;42.85;22.98;;;12.20;68.90;;;;;;5113983;28;20032;-72
2022/05/06 02:45:02;;;;;;;44.58;22.70;;;12.20;69.60;;;;;;5114431;28;20027;-72
2022/05/06 02:47:27;;;;;;;46.63;24.60;;;12.20;68.80;;;;;;5114493;28;20028;-72
2022/05/06 02:49:53;;;;;;;46.20;23.45;;;12.10;69.00;;;;;;5114278;28;20107;-72
2022/05/06 02:52:19;;;;;;;46.90;23.45;;;12.00;69.80;;;;;;5114352;28;20024;-72
2022/05/06 02:54:45;;;;;;;46.50;23.85;;;12.00;69.80;;;;;;5114283;28;20051;-72
2022/05/06 02:57:10;;;;;;;49.38;22.98;;;12.20;69.70;;;;;;5114193;28;20047;-72
2022/05/06 02:59:37;;;;;;;45.53;23.73;;;12.20;69.70;;;;;;5114109;28;20043;-72
2022/05/06 03:02:03;;;;;;;55.55;24.40;;;12.20;70.20;;;;;;5113928;28;20020;-72
2022/05/06 03:04:28;;;;;;;45.95;23.45;;;12.20;70.60;;;;;;5114042;28;20043;-72
2022/05/06 03:06:54;;;;;;;50.88;24.73;;;12.30;70.70;;;;;;5114018;28;20027;-72
2022/05/06 03:09:19;;;;;;;45.67;22.45;;;12.20;71.50;;;;;;5113965;28;20032;-72
2022/05/06 03:11:46;;;;;;;45.13;22.10;;;12.30;71.00;;;;;;5113969;28;20040;-72
2022/05/06 03:14:11;;;;;;;50.05;23.17;;;12.20;70.40;;;;;;5113957;28;20013;-72
2022/05/06 03:16:37;;;;;;;50.17;23.63;;;12.10;70.50;;;;;;5113874;28;20039;-73
2022/05/06 03:19:02;;;;;;;50.70;23.70;;;12.10;70.80;;;;;;5113841;28;20038;-72
2022/05/06 03:21:28;;;;;;;59.75;25.35;;;12.20;71.30;;;;;;5113851;28;20032;-72
2022/05/06 03:23:54;;;;;;;59.55;26.50;;;12.20;71.80;;;;;;5113761;28;20043;-72
2022/05/06 03:26:20;;;;;;;64.38;26.33;;;12.20;72.50;;;;;;5113736;28;20035;-72
2022/05/06 03:28:46;;;;;;;60.60;26.75;;;12.30;73.20;;;;;;5113533;28;20028;-72
2022/05/06 03:31:13;;;;;;;63.00;25.95;;;12.40;73.90;;;;;;5113644;28;20055;-72
2022/05/06 03:33:41;;;;;;;64.28;26.77;;;12.40;74.80;;;;;;5113613;28;20020;-72
2022/05/06 03:36:09;;;;;;;64.38;26.17;;;12.50;75.40;;;;;;5113606;28;20039;-72
2022/05/06 03:38:35;;;;;;;60.05;26.05;;;12.60;75.40;;;;;;5113432;28;20107;-72
2022/05/06 03:41:01;;;;;;;56.28;25.08;;;12.70;75.40;;;;;;5113540;28;20039;-72
2022/05/06 03:43:29;;;;;;;57.10;25.30;;;12.70;75.80;;;;;;5113535;28;20032;-72
2022/05/06 03:45:55;;;;;;;55.95;24.15;;;12.80;75.70;;;;;;5113424;28;20024;-72
2022/05/06 03:48:24;;;;;;;53.45;23.02;;;12.80;76.10;;;;;;5113433;28;20061;-72
2022/05/06 03:53:35;;;;;;;52.55;24.35;;;12.90;76.00;;;;;;5113499;28;20035;-72
2022/05/06 03:56:02;;;;;;;59.53;22.13;;;13.00;75.80;;;;;;5113368;28;20020;-72
2022/05/06 03:58:28;;;;;;;54.38;22.48;;;13.10;75.90;;;;;;5113348;28;20017;-72
2022/05/06 04:00:53;;;;;;;66.80;22.58;;;13.10;76.20;;;;;;5095424;28;20127;-72
2022/05/06 04:03:19;;;;;;;44.70;21.52;;;13.10;76.10;;;;;;5113293;28;20020;-71
2022/05/06 04:05:45;;;;;;;47.78;23.05;;;13.10;76.10;;;;;;5113253;28;20036;-71
2022/05/06 04:08:10;;;;;;;51.53;21.85;;;13.20;76.20;;;;;;5113360;28;20035;-71
2022/05/06 04:10:36;;;;;;;44.85;20.90;;;13.20;76.30;;;;;;5113145;28;20082;-71
2022/05/06 04:13:05;;;;;;;43.97;20.58;;;13.10;76.20;;;;;;5115242;28;20023;-71
2022/05/06 04:15:34;;;;;;;47.08;20.38;;;13.20;76.20;;;;;;5117295;28;20057;-71
2022/05/06 04:18:03;;;;;;;46.25;21.10;;;13.20;76.30;;;;;;5117264;28;20016;-71
2022/05/06 04:23:31;;;;;;;42.05;18.92;;;13.10;76.70;;;;;;5117292;28;20054;-71
2022/05/06 04:25:59;;;;;;;40.83;19.80;;;13.10;76.70;;;;;;5117340;28;20087;-71
2022/05/06 04:28:26;;;;;;;53.47;23.13;;;13.20;76.60;;;;;;5117052;28;20024;-71
2022/05/06 04:30:52;;;;;;;50.10;21.55;;;13.20;76.60;;;;;;5116969;28;20042;-71
2022/05/06 04:33:24;;;;;;;46.25;21.67;;;13.20;76.50;;;;;;5116978;28;20032;-71
2022/05/06 04:35:50;;;;;;;55.05;22.10;;;13.20;76.80;;;;;;5116995;28;20048;-71
2022/05/06 04:38:16;;;;;;;49.83;20.88;;;13.10;77.00;;;;;;5116762;28;20036;-71
2022/05/06 04:40:43;;;;;;;60.30;22.67;;;13.00;77.50;;;;;;5116871;28;20031;-71
2022/05/06 04:43:10;;;;;;;43.95;19.70;;;12.90;78.70;;;;;;5116757;28;20028;-71
2022/05/06 04:45:40;;;;;;;53.40;19.42;;;12.90;78.90;;;;;;5116788;28;20031;-71
2022/05/06 04:48:07;;;;;;;60.28;20.30;;;12.80;78.10;;;;;;5116737;28;20032;-71
2022/05/06 04:50:36;;;;;;;56.30;19.77;;;12.70;78.60;;;;;;5116600;28;20020;-72
2022/05/06 04:53:05;;;;;;;51.60;19.60;;;12.70;78.90;;;;;;5116618;28;20024;-72
2022/05/06 04:55:30;;;;;;;57.42;20.17;;;12.60;78.80;;;;;;5116554;28;20020;-72
2022/05/06 04:57:56;;;;;;;56.42;21.23;;;12.50;79.40;;;;;;5116541;28;20047;-72
2022/05/06 05:00:22;;;;;;;45.83;19.10;;;12.50;79.90;;;;;;5116466;28;20036;-72
2022/05/06 05:02:48;;;;;;;76.30;19.83;;;12.40;80.20;;;;;;5116424;28;20031;-72
2022/05/06 05:05:14;;;;;;;38.53;18.80;;;12.40;80.10;;;;;;5116356;28;20028;-72
2022/05/06 05:07:40;;;;;;;38.30;19.17;;;12.40;80.10;;;;;;5116471;28;20050;-72
2022/05/06 05:10:08;;;;;;;40.42;18.33;;;12.50;79.80;;;;;;5116265;28;20027;-72
2022/05/06 05:12:35;;;;;;;34.78;18.23;;;12.60;79.70;;;;;;5116312;28;20020;-72
2022/05/06 05:15:01;;;;;;;33.50;17.92;;;12.60;79.50;;;;;;5116178;28;20028;-72
2022/05/06 05:17:26;;;;;;;42.72;16.95;;;12.60;79.60;;;;;;5116108;28;20021;-72
2022/05/06 05:19:52;;;;;;;41.83;16.55;;;12.60;79.40;;;;;;5116097;28;20039;-72
2022/05/06 05:22:18;;;;;;;37.60;16.00;;;12.50;79.80;;;;;;5116090;28;20024;-72
2022/05/06 05:24:44;;;;;;;34.47;16.45;;;12.30;80.20;;;;;;5115945;28;20506;-72
2022/05/06 05:27:09;;;;;;;33.63;16.98;;;12.30;80.00;;;;;;5115925;28;20202;-72
2022/05/06 05:29:35;;;;;;;41.60;16.42;;;12.40;80.10;;;;;;5115920;28;20106;-72
2022/05/06 05:32:01;;;;;;;35.80;17.08;;;12.50;79.70;;;;;;5115883;28;20027;-72
2022/05/06 05:34:27;;;;;;;36.63;16.90;;;12.50;79.90;;;;;;5115807;28;20023;-72
2022/05/06 05:36:52;;;;;;;34.33;17.27;;;12.50;79.60;;;;;;5115557;28;20044;-72
2022/05/06 05:39:18;;;;;;;33.58;17.02;;;12.50;79.70;;;;;;5115736;28;20024;-72
2022/05/06 05:41:44;;;;;;;42.95;17.40;;;12.60;79.40;;;;;;5115690;28;20495;-72
2022/05/06 05:49:38;;;;;;;31.73;14.90;;;12.70;78.90;;;;;;5115570;28;20050;-72
2022/05/06 05:52:04;;;;;;;29.30;15.35;;;12.80;78.80;;;;;;5115503;28;20040;-70
2022/05/06 05:54:29;;;;;;;30.13;16.00;;;12.80;78.80;;;;;;5115439;28;20046;-70
2022/05/06 05:56:55;;;;;;;31.95;15.30;;;12.90;78.80;;;;;;5115511;28;20029;-70
2022/05/06 05:59:22;;;;;;;34.67;16.40;;;12.80;79.50;;;;;;5097476;28;20044;-69
2022/05/06 06:01:49;;;;;;;38.13;16.20;;;12.70;79.80;;;;;;5115291;28;20020;-69
2022/05/06 06:04:15;;;;;;;41.40;16.10;;;12.60;80.00;;;;;;5097611;28;20028;-69
2022/05/06 06:06:41;;;;;;;32.25;15.73;;;12.50;80.40;;;;;;5115310;28;20051;-69
2022/05/06 06:09:08;;;;;;;30.25;14.80;;;12.50;80.40;;;;;;5115063;28;20051;-69
2022/05/06 06:11:35;;;;;;;32.22;15.52;;;12.50;80.70;;;;;;5115076;28;20020;-69
2022/05/06 06:14:01;;;;;;;41.60;18.15;;;12.40;81.10;;;;;;5114993;28;20020;-70
2022/05/06 06:16:27;;;;;;;32.03;16.10;;;12.50;81.20;;;;;;5115035;28;20032;-70
2022/05/06 06:18:52;;;;;;;29.17;15.18;;;12.60;81.00;;;;;;5114999;28;20018;-70
2022/05/06 06:21:18;;;;;;;32.72;15.63;;;12.70;80.70;;;;;;5114859;28;20367;-70
2022/05/06 06:23:43;;;;;;;31.67;15.98;;;12.80;80.70;;;;;;5114878;28;20032;-70
2022/05/06 06:26:09;;;;;;;34.08;14.75;;;12.80;80.70;;;;;;5114802;28;20043;-70
2022/05/06 06:28:35;;;;;;;27.42;14.07;;;12.80;80.60;;;;;;5114723;28;20032;-70
2022/05/06 06:31:00;;;;;;;29.92;15.75;;;12.80;80.80;;;;;;5114638;28;20040;-70
2022/05/06 06:33:26;;;;;;;27.45;14.82;;;12.80;80.90;;;;;;5114693;28;20031;-70
2022/05/06 06:35:51;;;;;;;29.10;15.15;;;12.90;80.90;;;;;;5114135;28;20020;-70
2022/05/06 06:38:19;;;;;;;30.98;15.63;;;13.00;80.50;;;;;;5114268;28;20053;-70
2022/05/06 06:40:44;;;;;;;62.92;17.33;;;13.00;80.10;;;;;;5114553;28;20455;-70
2022/05/06 06:43:10;;;;;;;28.83;15.27;;;13.00;80.00;;;;;;5114515;28;20039;-70
2022/05/06 06:45:37;;;;;;;34.45;15.52;;;13.10;79.90;;;;;;5114465;28;20028;-70
2022/05/06 06:48:04;;;;;;;29.60;14.38;;;13.10;80.80;;;;;;5114435;28;20038;-70
2022/05/06 06:50:29;;;;;;;27.45;15.15;;;13.10;80.10;;;;;;5114219;28;20085;-70
2022/05/06 06:52:55;;;;;;;29.90;15.38;;;13.10;80.10;;;;;;5096314;28;20028;-70
2022/05/06 06:55:21;;;;;;;30.88;15.07;;;13.10;80.00;;;;;;5114246;28;20114;-70
2022/05/06 06:57:46;;;;;;;33.65;16.52;;;13.20;80.70;;;;;;5114353;28;20016;-70
2022/05/06 07:00:13;;;;;;;30.75;15.75;;;13.20;80.00;;;;;;5114158;28;20032;-70
2022/05/06 07:02:45;;;;;;;33.47;16.77;;;13.20;79.80;;;;;;5114102;28;20058;-70
2022/05/06 07:05:10;;;;;;;31.05;15.68;;;13.20;81.00;;;;;;5096252;28;20023;-70
2022/05/06 07:13:04;;;;;;;31.67;14.80;;;13.20;80.30;;;;;;5114065;28;20095;-70
2022/05/06 07:15:31;;;;;;;36.97;16.60;;;13.20;80.20;;;;;;5096073;28;20036;-70
2022/05/06 07:17:58;;;;;;;32.50;15.90;;;13.20;81.30;;;;;;5096315;28;20028;-70
2022/05/06 07:20:23;;;;;;;30.33;15.60;;;13.30;80.70;;;;;;5113805;28;20024;-70
2022/05/06 07:22:49;;;;;;;32.70;15.98;;;13.30;80.70;;;;;;5113774;28;20035;-69
2022/05/06 07:25:15;;;;;;;34.20;16.83;;;13.40;80.50;;;;;;5113766;28;20024;-70
2022/05/06 07:27:40;;;;;;;34.15;16.60;;;13.40;80.70;;;;;;5113660;28;20036;-70
2022/05/06 07:30:08;;;;;;;32.53;16.33;;;13.40;80.60;;;;;;5113630;28;20032;-70
2022/05/06 07:32:34;;;;;;;29.00;15.05;;;13.40;80.40;;;;;;5113652;28;20024;-70
2022/05/06 07:35:01;;;;;;;33.63;16.63;;;13.50;80.30;;;;;;5113616;28;20020;-70
2022/05/06 07:37:33;;;;;;;33.63;16.65;;;13.50;80.00;;;;;;5113398;28;20044;-70
2022/05/06 07:40:02;;;;;;;32.70;15.95;;;13.60;79.80;;;;;;5113742;28;20028;-70
2022/05/06 07:42:32;;;;;;;35.33;17.20;;;13.60;79.60;;;;;;5113454;28;20039;-70
2022/05/06 07:44:58;;;;;;;36.65;17.85;;;13.70;79.50;;;;;;5113464;28;20043;-70
2022/05/06 07:47:24;;;;;;;33.72;16.48;;;13.70;79.60;;;;;;5112585;28;20051;-70
2022/05/06 07:49:49;;;;;;;35.70;16.63;;;13.70;79.50;;;;;;5095441;28;20028;-70
2022/05/06 07:52:15;;;;;;;33.97;16.02;;;13.70;79.60;;;;;;5113400;28;20043;-70
2022/05/06 07:54:41;;;;;;;31.38;16.35;;;13.80;79.40;;;;;;5113458;28;20036;-70
2022/05/06 07:57:06;;;;;;;36.58;17.60;;;13.80;79.30;;;;;;5113362;28;20028;-70
2022/05/06 07:59:32;;;;;;;35.10;17.13;;;13.90;79.10;;;;;;5113280;28;20047;-70
2022/05/06 08:04:47;;;;;;;32.30;16.63;;;13.90;79.00;;;;;;5113432;28;20051;-70
2022/05/06 08:07:13;;;;;;;32.88;15.00;;;13.90;78.90;;;;;;5113294;28;20046;-70
2022/05/06 08:09:39;;;;;;;32.00;15.48;;;14.00;78.80;;;;;;5113188;28;20028;-70
2022/05/06 08:12:05;;;;;;;32.28;15.93;;;13.90;78.80;;;;;;5095496;28;20021;-70
2022/05/06 08:14:31;;;;;;;33.17;16.40;;;13.90;78.90;;;;;;5113326;28;20024;-70
2022/05/06 08:16:57;;;;;;;36.70;17.75;;;13.90;78.80;;;;;;5113141;28;20016;-70
2022/05/06 08:19:22;;;;;;;32.08;16.38;;;14.00;78.90;;;;;;5113287;28;20056;-70
2022/05/06 08:21:49;;;;;;;35.50;16.80;;;14.00;78.80;;;;;;5113276;28;20036;-70
2022/05/06 08:24:14;;;;;;;35.53;16.80;;;14.10;78.90;;;;;;5113051;28;20032;-70
2022/05/06 08:26:40;;;;;;;36.97;18.02;;;14.10;78.80;;;;;;5113195;28;20081;-70
2022/05/06 08:29:06;;;;;;;35.05;17.98;;;14.10;79.70;;;;;;5112933;28;20109;-70
2022/05/06 08:31:32;;;;;;;40.53;18.75;;;14.10;79.00;;;;;;5113080;28;20029;-70
2022/05/06 08:33:58;;;;;;;36.78;18.83;;;14.10;79.30;;;;;;5113143;28;20047;-71
2022/05/06 08:36:24;;;;;;;36.10;18.73;;;14.10;79.50;;;;;;5113035;28;20024;-70
2022/05/06 08:38:50;;;;;;;43.15;18.70;;;14.10;79.10;;;;;;5112810;28;20044;-70
2022/05/06 08:41:17;;;;;;;41.65;19.38;;;14.00;79.20;;;;;;5113067;28;20039;-70
2022/05/06 08:43:42;;;;;;;35.25;18.70;;;14.10;79.80;;;;;;5112884;28;20069;-70
2022/05/06 08:51:40;;;;;;;37.95;18.40;;;14.60;78.80;;;;;;5112966;28;20042;-70
2022/05/06 08:54:07;;;;;;;36.97;19.15;;;14.70;78.00;;;;;;5112824;28;20020;-70
2022/05/06 08:56:32;;;;;;;37.45;19.25;;;14.80;77.70;;;;;;5112828;28;20020;-70
2022/05/06 08:58:58;;;;;;;35.15;18.50;;;15.00;77.40;;;;;;5114495;28;20035;-70
2022/05/06 09:01:25;;;;;;;34.58;17.25;;;15.20;77.00;;;;;;5116422;28;20028;-70
2022/05/06 09:03:51;;;;;;;33.95;17.55;;;15.20;76.20;;;;;;5116420;28;20023;-70
2022/05/06 09:06:18;;;;;;;36.13;19.27;;;15.40;76.50;;;;;;5116407;28;20375;-70
2022/05/06 09:08:45;;;;;;;36.75;18.02;;;15.50;77.20;;;;;;5116365;28;20028;-70
2022/05/06 09:11:11;;;;;;;35.70;18.65;;;15.60;77.00;;;;;;5116203;28;20059;-71
2022/05/06 09:13:49;;;;;;;31.60;17.75;;;15.60;76.00;;;;;;5116216;28;20027;-71
2022/05/06 09:16:41;;;;;;;34.40;18.65;;;15.50;75.50;;;;;;5116045;28;20021;-71
2022/05/06 09:19:11;;;;;;;;;;;15.50;76.00;;;;;;5116570;28;20082;-71
2022/05/06 09:21:38;;;;;;;35.25;18.42;;;15.50;77.30;;;;;;5116270;28;19965;-71
2022/05/06 09:24:20;;;;;;;38.42;19.38;;;15.60;76.30;;;;;;5116075;28;20091;-71
2022/05/06 09:26:59;;;;;;;35.00;17.48;;;15.70;76.40;;;;;;5115964;28;20047;-71
2022/05/06 09:29:35;;;;;;;26.70;14.18;;;15.90;76.20;;;;;;5115849;28;20095;-71
2022/05/06 09:32:13;;;;;;;30.65;16.27;;;16.10;73.80;;;;;;5115966;28;20084;-71
2022/05/06 09:34:42;;;;;;;30.02;16.95;;;16.20;74.20;;;;;;5115826;28;20020;-71
2022/05/06 09:37:08;;;;;;;32.03;16.70;;;16.20;73.50;;;;;;5115601;28;20078;-70
2022/05/06 09:39:38;;;;;;;30.55;17.88;;;16.30;73.40;;;;;;5115746;28;20024;-70
2022/05/06 09:42:08;;;;;;;33.45;17.45;;;16.50;73.20;;;;;;5115738;28;20035;-70
2022/05/06 09:44:34;;;;;;;33.03;16.58;;;16.50;73.20;;;;;;5115840;28;20020;-71
2022/05/06 09:47:15;;;;;;;25.08;14.32;;;16.60;73.60;;;;;;5115632;28;20020;-71
2022/05/06 09:49:42;;;;;;;25.98;14.45;;;16.80;72.70;;;;;;5115676;28;20092;-72
2022/05/06 09:52:14;;;;;;;25.85;14.15;;;16.80;71.90;;;;;;5115538;28;20027;-71
2022/05/06 09:54:41;;;;;;;24.02;13.23;;;16.90;72.50;;;;;;5115533;28;20076;-70
2022/05/06 09:57:09;;;;;;;21.08;11.75;;;17.10;72.50;;;;;;5115497;28;20116;-70
2022/05/06 09:59:36;;;;;;;22.65;12.00;;;17.40;71.00;;;;;;5115309;28;20043;-70
2022/05/06 10:02:04;;;;;;;25.35;13.13;;;17.50;69.60;;;;;;5115299;28;20028;-70
2022/05/06 10:04:29;;;;;;;21.70;12.57;;;17.60;69.40;;;;;;5115265;28;20028;-70
2022/05/06 10:06:59;;;;;;;21.25;12.10;;;17.70;69.60;;;;;;5115254;28;20038;-70
2022/05/06 10:09:27;;;;;;;23.00;12.43;;;17.80;68.80;;;;;;5114764;28;20021;-70
2022/05/06 10:11:55;;;;;;;25.27;13.30;;;17.80;68.30;;;;;;5114662;28;20012;-70
2022/05/06 10:14:22;;;;;;;20.80;12.35;;;17.80;67.70;;;;;;5115064;28;20032;-70
2022/05/06 10:16:48;;;;;;;21.40;12.68;;;17.80;68.80;;;;;;5115075;28;20016;-70
2022/05/06 10:19:38;;;;;;;25.92;12.88;;;17.90;69.10;;;;;;5114994;28;20021;-70
2022/05/06 10:22:05;;;;;;;19.08;10.40;;;18.10;68.00;;;;;;5114914;28;20079;-70
2022/05/06 10:24:41;;;;;;;16.23;9.65;;;18.20;67.00;;;;;;5114859;28;20036;-70
2022/05/06 10:34:07;;;;;;;17.02;9.95;;;18.30;64.80;;;;;;5072183;28;20063;-70
2022/05/06 10:36:52;;;;;;;16.73;10.23;;;18.30;64.20;;;;;;5114544;28;20020;-70
2022/05/06 10:39:30;;;;;;;16.95;10.65;;;18.30;64.50;;;;;;5096691;28;20032;-70
2022/05/06 10:42:18;;;;;;;18.13;10.77;;;18.50;64.90;;;;;;5114670;28;20050;-70
2022/05/06 10:44:49;;;;;;;14.15;8.82;;;18.40;64.30;;;;;;5114499;28;20028;-70
2022/05/06 10:47:20;;;;;;;15.02;9.25;;;18.50;64.30;;;;;;5114445;28;20125;-70
2022/05/06 10:49:54;;;;;;;17.13;10.15;;;18.60;64.80;;;;;;5114312;28;20052;-70
2022/05/06 10:52:24;;;;;;;15.63;9.88;;;18.90;64.00;;;;;;5114417;28;20020;-70
2022/05/06 10:54:55;;;;;;;12.88;8.52;;;19.00;63.40;;;;;;5114439;28;20072;-70
2022/05/06 10:57:48;;;;;;;13.02;7.50;;;19.20;62.60;;;;;;5114241;28;20035;-70
2022/05/06 11:00:14;;;;;;;15.68;9.07;;;19.30;62.70;;;;;;5101311;28;20092;-70
2022/05/06 11:02:40;;;;;;;13.38;8.65;;;19.40;60.60;;;;;;5114095;28;20035;-71
2022/05/06 11:05:08;;;;;;;16.13;9.65;;;19.50;60.40;;;;;;5114123;28;20020;-70
2022/05/06 11:07:37;;;;;;;15.73;9.52;;;19.50;60.10;;;;;;5114119;28;20016;-70
2022/05/06 11:10:10;;;;;;;18.08;10.48;;;19.50;60.30;;;;;;5113929;28;20034;-70
2022/05/06 11:12:37;;;;;;;18.63;9.55;;;19.60;60.60;;;;;;5113991;28;20482;-70
2022/05/06 11:15:05;;;;;;;13.82;8.60;;;19.60;60.10;;;;;;5113931;28;20425;-70
2022/05/06 11:17:32;;;;;;;15.30;9.90;;;19.70;60.70;;;;;;5096008;28;20479;-71
2022/05/06 11:19:59;;;;;;;14.88;8.95;;;19.90;59.70;;;;;;5113889;28;20035;-71
2022/05/06 11:22:25;;;;;;;12.48;7.88;;;19.90;58.50;;;;;;5113722;28;20019;-71
2022/05/06 11:24:58;;;;;;;17.15;10.15;;;20.00;58.30;;;;;;5113769;28;20024;-71
2022/05/06 11:27:24;;;;;;;18.13;9.32;;;20.20;59.40;;;;;;5113759;28;20039;-71
2022/05/06 11:29:55;;;;;;;15.15;9.20;;;20.20;56.40;;;;;;5113599;28;20028;-71
2022/05/06 11:32:23;;;;;;;15.40;8.68;;;20.10;56.80;;;;;;5113687;28;20047;-71
2022/05/06 11:34:58;;;;;;;16.42;9.35;;;20.20;56.90;;;;;;5113660;28;20020;-71
2022/05/06 11:37:26;;;;;;;15.07;8.77;;;20.30;55.30;;;;;;5095575;28;20052;-71
2022/05/06 11:40:18;;;;;;;15.38;9.98;;;20.30;56.30;;;;;;5113568;28;20054;-70
2022/05/06 11:42:39;;;;;;;16.67;8.98;;;20.30;56.10;;;;;;5113416;28;20039;-70
2022/05/06 11:47:49;;;;;;;13.07;7.82;;;20.10;54.70;;;;;;5113743;28;20053;-70
2022/05/06 11:50:15;;;;;;;14.43;8.48;;;20.30;54.90;;;;;;5113534;28;20052;-71
2022/05/06 11:52:43;;;;;;;12.73;7.80;;;20.30;55.90;;;;;;5095590;28;20028;-70
2022/05/06 11:55:09;;;;;;;11.57;7.15;;;20.40;56.80;;;;;;5113428;28;20080;-70
2022/05/06 11:57:37;;;;;;;13.77;7.45;;;20.50;55.40;;;;;;5113383;28;20088;-71
2022/05/06 12:00:06;;;;;;;11.80;8.05;;;20.60;54.30;;;;;;5113300;28;20035;-71
2022/05/06 12:02:33;;;;;;;13.10;8.27;;;20.70;51.70;;;;;;5113243;28;20033;-71
2022/05/06 12:04:58;;;;;;;12.88;7.65;;;20.50;52.20;;;;;;5113337;28;20456;-70
2022/05/06 12:07:44;;;;;;;11.30;7.90;;;20.50;51.60;;;;;;5113252;28;20083;-71
2022/05/06 12:10:10;;;;;;;9.68;6.25;;;20.40;51.40;;;;;;5113247;28;20039;-72
2022/05/06 12:13:00;;;;;;;11.90;6.80;;;20.40;52.70;;;;;;5095295;28;20028;-70
2022/05/06 12:15:30;;;;;;;10.32;6.80;;;20.70;51.80;;;;;;5113382;28;20031;-71
2022/05/06 12:18:05;;;;;;;9.95;5.85;;;20.80;50.00;;;;;;5113221;28;20024;-71
2022/05/06 12:20:34;;;;;;;9.10;6.32;;;20.90;51.00;;;;;;5113109;28;20036;-72
2022/05/06 12:22:59;;;;;;;10.10;6.82;;;20.80;50.20;;;;;;5095221;28;20112;-70
2022/05/06 12:25:26;;;;;;;9.45;6.25;;;20.90;50.60;;;;;;5113100;28;20028;-70
2022/05/06 12:28:08;;;;;;;11.20;7.00;;;20.90;51.40;;;;;;5095114;28;20059;-72
2022/05/06 12:30:36;;;;;;;13.38;6.53;;;21.10;50.60;;;;;;5113017;28;20028;-72
2022/05/06 12:33:12;;;;;;;8.73;5.72;;;21.20;51.00;;;;;;5113277;28;20059;-72
2022/05/06 12:35:56;;;;;;;8.70;5.60;;;21.30;51.50;;;;;;5117044;28;20032;-70
2022/05/06 12:38:23;;;;;;;8.30;5.80;;;21.50;49.20;;;;;;5116787;28;20047;-72
2022/05/06 12:40:50;;;;;;;8.43;5.78;;;21.50;49.80;;;;;;5116902;28;20048;-71
2022/05/06 12:43:23;;;;;;;9.73;6.38;;;21.40;49.80;;;;;;5116803;28;20024;-71
2022/05/06 12:45:59;;;;;;;9.40;5.10;;;21.30;49.00;;;;;;5116902;28;20044;-71
2022/05/06 12:51:08;;;;;;;8.80;5.95;;;21.70;48.30;;;;;;5116748;28;20042;-72
2022/05/06 12:53:35;;;;;;;10.02;6.68;;;21.70;47.50;;;;;;5116772;28;20032;-72
2022/05/06 12:56:04;;;;;;;8.73;5.75;;;21.80;47.60;;;;;;5116623;28;20032;-70
2022/05/06 12:58:30;;;;;;;8.75;5.90;;;21.70;46.20;;;;;;5116579;28;20016;-70
2022/05/06 13:00:59;;;;;;;10.43;6.70;;;21.60;47.50;;;;;;5116549;28;20020;-69
2022/05/06 13:03:25;;;;;;;12.25;6.97;;;21.70;46.90;;;;;;5116509;28;20028;-70
2022/05/06 13:05:53;;;;;;;9.75;5.82;;;21.70;47.50;;;;;;5116431;28;20039;-70
2022/05/06 13:08:20;;;;;;;8.95;5.97;;;21.70;46.80;;;;;;5116387;28;20022;-70
2022/05/06 13:10:45;;;;;;;8.98;5.50;;;21.70;46.80;;;;;;5098444;28;20040;-70
2022/05/06 13:13:12;;;;;;;8.18;5.40;;;21.80;46.90;;;;;;5116207;28;20032;-71
2022/05/06 13:15:37;;;;;;;11.88;5.85;;;21.90;44.80;;;;;;5116236;28;20027;-71